createdAt,value
2018-06-09T00:00:44.299Z,4.70
2018-06-09T00:03:14.246Z,4.42
2018-06-09T00:05:43.795Z,4.25
2018-06-09T00:08:15.462Z,4.57
2018-06-09T00:10:44.894Z,4.30
2018-06-09T00:13:14.222Z,4.10
2018-06-09T00:15:43.679Z,3.98
2018-06-09T00:18:12.804Z,3.20
2018-06-09T00:20:42.047Z,4.67
2018-06-09T00:23:11.449Z,3.92
2018-06-09T00:25:41.508Z,4.30
2018-06-09T00:28:10.808Z,3.90
2018-06-09T00:30:40.236Z,4.95
2018-06-09T00:33:09.572Z,5.07
2018-06-09T00:35:39.918Z,4.15
2018-06-09T00:38:09.519Z,4.70
2018-06-09T00:40:38.833Z,5.20
2018-06-09T00:43:08.255Z,4.20
2018-06-09T00:45:38.235Z,5.10
2018-06-09T00:48:08.931Z,5.67
2018-06-09T00:50:38.436Z,5.13
2018-06-09T00:53:07.784Z,4.73
2018-06-09T00:55:37.046Z,5.23
2018-06-09T00:58:07.571Z,5.23
2018-06-09T01:00:36.937Z,4.67
2018-06-09T01:03:06.440Z,5.30
2018-06-09T01:05:35.919Z,5.10
2018-06-09T01:08:05.456Z,5.63
2018-06-09T01:10:34.859Z,5.40
2018-06-09T01:13:04.972Z,4.73
2018-06-09T01:15:34.406Z,5.20
2018-06-09T01:18:03.888Z,5.37
2018-06-09T01:20:33.498Z,5.90
2018-06-09T01:23:03.723Z,5.47
2018-06-09T01:25:33.056Z,5.67
2018-06-09T01:28:02.535Z,5.57
2018-06-09T01:30:32.238Z,6.13
2018-06-09T01:33:01.750Z,5.90
2018-06-09T01:35:31.275Z,5.83
2018-06-09T01:38:00.831Z,5.30
2018-06-09T01:40:30.334Z,5.40
2018-06-09T01:43:01.832Z,5.00
2018-06-09T01:45:31.247Z,5.80
2018-06-09T01:48:00.484Z,5.57
2018-06-09T01:50:29.954Z,5.67
2018-06-09T01:52:59.859Z,5.43
2018-06-09T01:55:29.143Z,5.53
2018-06-09T01:57:58.621Z,5.67
2018-06-09T02:00:28.150Z,5.40
2018-06-09T02:02:57.390Z,5.87
2018-06-09T02:05:26.926Z,4.13
2018-06-09T02:07:56.368Z,4.77
2018-06-09T02:10:25.722Z,5.73
2018-06-09T02:12:56.068Z,4.87
2018-06-09T02:15:25.416Z,3.80
2018-06-09T02:17:54.694Z,4.30
2018-06-09T02:20:24.056Z,4.50
2018-06-09T02:22:53.488Z,4.57
2018-06-09T02:25:22.800Z,4.47
2018-06-09T02:27:52.140Z,3.80
2018-06-09T02:30:21.493Z,4.67
2018-06-09T02:32:50.973Z,4.07
2018-06-09T02:35:20.238Z,4.50
2018-06-09T02:37:49.669Z,5.80
2018-06-09T02:40:18.878Z,5.50
2018-06-09T02:42:48.565Z,3.97
2018-06-09T02:45:17.965Z,4.37
2018-06-09T02:47:47.408Z,4.33
2018-06-09T02:50:16.868Z,4.07
2018-06-09T02:52:46.194Z,4.33
2018-06-09T02:55:15.575Z,4.20
2018-06-09T02:57:44.735Z,4.37
2018-06-09T03:00:14.173Z,3.73
2018-06-09T03:02:43.475Z,4.37
2018-06-09T03:05:12.872Z,4.30
2018-06-09T03:07:42.325Z,4.13
2018-06-09T03:10:11.697Z,4.10
2018-06-09T03:12:41.106Z,3.63
2018-06-09T03:15:10.434Z,4.20
2018-06-09T03:17:39.860Z,3.93
2018-06-09T03:20:09.222Z,4.30
2018-06-09T03:22:38.495Z,4.30
2018-06-09T03:25:08.311Z,5.00
2018-06-09T03:27:37.787Z,4.90
2018-06-09T03:30:07.662Z,5.30
2018-06-09T03:32:37.085Z,4.73
2018-06-09T03:35:06.403Z,4.70
2018-06-09T03:37:35.870Z,4.90
2018-06-09T03:40:05.450Z,4.53
2018-06-09T03:42:35.073Z,4.25
2018-06-09T03:45:04.490Z,5.05
2018-06-09T03:47:33.930Z,4.50
2018-06-09T03:50:03.347Z,4.93
2018-06-09T03:52:32.838Z,4.30
2018-06-09T03:55:02.267Z,4.53
2018-06-09T03:57:32.185Z,4.43
2018-06-09T04:00:01.512Z,5.03
2018-06-09T04:02:30.856Z,4.80
2018-06-09T04:05:00.453Z,4.00
2018-06-09T04:07:29.856Z,4.37
2018-06-09T04:09:59.310Z,4.67
2018-06-09T04:12:28.856Z,4.58
2018-06-09T04:15:00.451Z,3.80
2018-06-09T04:17:29.971Z,3.67
2018-06-09T04:19:59.398Z,4.28
2018-06-09T04:22:28.737Z,3.15
2018-06-09T04:24:58.252Z,3.70
2018-06-09T04:27:27.770Z,3.55
2018-06-09T04:29:57.094Z,3.95
2018-06-09T04:32:26.617Z,3.57
2018-06-09T04:34:56.169Z,3.80
2018-06-09T04:37:25.584Z,4.27
2018-06-09T04:39:55.596Z,4.08
2018-06-09T04:42:24.957Z,4.27
2018-06-09T04:44:54.497Z,3.33
2018-06-09T04:47:23.879Z,3.25
2018-06-09T04:49:53.311Z,3.92
2018-06-09T04:52:22.771Z,4.00
2018-06-09T04:54:52.217Z,3.55
2018-06-09T04:57:21.522Z,3.95
2018-06-09T04:59:51.061Z,4.00
2018-06-09T05:02:20.564Z,3.50
2018-06-09T05:04:49.929Z,3.67
2018-06-09T05:07:19.438Z,3.95
2018-06-09T05:09:48.992Z,3.98
2018-06-09T05:12:18.666Z,3.52
2018-06-09T05:14:48.209Z,4.33
2018-06-09T05:17:17.701Z,3.87
2018-06-09T05:19:47.047Z,3.67
2018-06-09T05:22:16.578Z,3.65
2018-06-09T05:24:45.847Z,4.30
2018-06-09T05:27:15.462Z,4.17
2018-06-09T05:29:45.113Z,3.87
2018-06-09T05:32:14.741Z,4.22
2018-06-09T05:34:45.781Z,3.83
2018-06-09T05:37:15.203Z,3.83
2018-06-09T05:39:44.751Z,3.85
2018-06-09T05:42:14.244Z,3.35
2018-06-09T05:44:43.799Z,3.20
2018-06-09T05:47:13.188Z,3.50
2018-06-09T05:49:42.663Z,3.45
2018-06-09T05:52:11.952Z,3.15
2018-06-09T05:54:41.428Z,3.72
2018-06-09T05:57:11.780Z,3.17
2018-06-09T05:59:41.113Z,3.42
2018-06-09T06:02:10.531Z,3.85
2018-06-09T06:04:39.760Z,3.60
2018-06-09T06:07:09.161Z,3.70
2018-06-09T06:09:38.404Z,3.80
2018-06-09T06:12:07.779Z,2.90
2018-06-09T06:14:37.326Z,3.50
2018-06-09T06:17:06.582Z,3.62
2018-06-09T06:19:36.004Z,3.72
2018-06-09T06:22:05.464Z,3.35
2018-06-09T06:24:34.707Z,3.42
2018-06-09T06:27:04.247Z,4.33
2018-06-09T06:29:33.525Z,3.10
2018-06-09T06:32:02.938Z,3.27
2018-06-09T06:34:32.366Z,3.08
2018-06-09T06:37:01.651Z,2.98
2018-06-09T06:39:31.187Z,3.58
2018-06-09T06:42:00.543Z,3.47
2018-06-09T06:44:31.159Z,3.30
2018-06-09T06:47:00.558Z,3.17
2018-06-09T06:49:31.511Z,3.08
2018-06-09T06:52:00.862Z,3.30
2018-06-09T06:54:30.266Z,2.95
2018-06-09T06:57:00.866Z,2.40
2018-06-09T06:59:30.499Z,3.35
2018-06-09T07:08:49.017Z,3.25
2018-06-09T07:11:19.105Z,3.25
2018-06-09T07:13:48.530Z,3.95
2018-06-09T07:16:17.756Z,3.45
2018-06-09T07:18:47.954Z,3.30
2018-06-09T07:21:17.899Z,4.10
2018-06-09T07:23:47.304Z,3.15
2018-06-09T07:26:16.755Z,3.42
2018-06-09T07:28:46.122Z,2.92
2018-06-09T07:31:15.422Z,3.40
2018-06-09T07:33:44.719Z,3.00
2018-06-09T07:36:14.073Z,2.92
2018-06-09T07:38:43.304Z,3.00
2018-06-09T07:41:12.496Z,2.27
2018-06-09T07:43:41.711Z,2.58
2018-06-09T07:46:10.905Z,2.12
2018-06-09T07:48:40.515Z,2.10
2018-06-09T07:51:09.745Z,2.47
2018-06-09T07:53:38.898Z,2.10
2018-06-09T07:56:08.349Z,2.62
2018-06-09T07:58:37.515Z,3.47
2018-06-09T08:01:06.610Z,3.17
2018-06-09T08:03:36.003Z,3.10
2018-06-09T08:06:05.302Z,3.00
2018-06-09T08:08:34.665Z,2.87
2018-06-09T08:11:03.906Z,2.40
2018-06-09T08:13:33.445Z,3.08
2018-06-09T08:16:02.654Z,2.80
2018-06-09T08:18:31.917Z,2.25
2018-06-09T08:21:01.108Z,3.05
2018-06-09T08:23:30.476Z,2.52
2018-06-09T08:25:59.754Z,2.95
2018-06-09T08:28:28.803Z,2.85
2018-06-09T08:30:57.826Z,2.62
2018-06-09T08:33:27.000Z,3.00
2018-06-09T08:35:56.344Z,2.70
2018-06-09T08:38:25.846Z,2.87
2018-06-09T08:40:55.535Z,3.25
2018-06-09T08:43:24.883Z,3.12
2018-06-09T08:45:54.198Z,3.08
2018-06-09T08:48:23.600Z,3.33
2018-06-09T08:50:53.332Z,2.72
2018-06-09T08:53:22.739Z,2.52
2018-06-09T08:55:51.954Z,2.47
2018-06-09T08:58:21.182Z,2.40
2018-06-09T09:00:50.363Z,2.70
2018-06-09T09:03:19.515Z,2.62
2018-06-09T09:05:48.716Z,2.37
2018-06-09T09:08:17.984Z,2.30
2018-06-09T09:10:47.230Z,2.60
2018-06-09T09:13:16.657Z,2.75
2018-06-09T09:15:46.054Z,3.35
2018-06-09T09:18:15.432Z,2.83
2018-06-09T09:20:44.820Z,3.15
2018-06-09T09:23:14.046Z,2.77
2018-06-09T09:25:43.439Z,2.90
2018-06-09T09:28:12.834Z,2.80
2018-06-09T09:30:42.180Z,2.77
2018-06-09T09:33:11.341Z,3.47
2018-06-09T09:35:40.629Z,3.40
2018-06-09T09:38:09.862Z,3.15
2018-06-09T09:40:39.495Z,3.27
2018-06-09T09:43:08.927Z,3.67
2018-06-09T09:45:38.189Z,3.10
2018-06-09T09:48:07.339Z,3.27
2018-06-09T09:50:36.561Z,3.02
2018-06-09T09:53:05.859Z,3.17
2018-06-09T09:55:35.089Z,3.55
2018-06-09T09:58:04.489Z,3.35
2018-06-09T10:00:38.646Z,4.00
2018-06-09T10:03:08.060Z,3.90
2018-06-09T10:05:37.453Z,3.50
2018-06-09T10:08:07.098Z,4.00
2018-06-09T10:10:36.577Z,3.17
2018-06-09T10:13:05.982Z,3.12
2018-06-09T10:15:35.490Z,3.25
2018-06-09T10:18:04.862Z,4.08
2018-06-09T10:20:35.379Z,3.67
2018-06-09T10:23:04.622Z,3.58
2018-06-09T10:25:33.849Z,3.30
2018-06-09T10:28:03.177Z,3.47
2018-06-09T10:30:32.425Z,3.42
2018-06-09T10:33:01.900Z,3.37
2018-06-09T10:35:31.210Z,3.42
2018-06-09T10:38:00.073Z,3.50
2018-06-09T10:40:32.211Z,3.47
2018-06-09T10:43:01.555Z,3.25
2018-06-09T10:45:31.288Z,3.55
2018-06-09T10:48:00.612Z,3.47
2018-06-09T10:50:30.046Z,3.45
2018-06-09T10:52:59.504Z,4.08
2018-06-09T10:55:28.886Z,3.77
2018-06-09T10:57:58.345Z,3.70
2018-06-09T11:00:27.795Z,4.25
2018-06-09T11:02:57.085Z,4.08
2018-06-09T11:05:26.431Z,3.80
2018-06-09T11:07:55.862Z,3.72
2018-06-09T11:10:25.385Z,3.25
2018-06-09T11:12:54.809Z,3.55
2018-06-09T11:15:24.242Z,3.90
2018-06-09T11:17:53.630Z,3.90
2018-06-09T11:20:23.021Z,5.10
2018-06-09T11:22:52.435Z,4.12
2018-06-09T11:25:21.759Z,4.70
2018-06-09T11:27:51.467Z,3.65
2018-06-09T11:30:20.828Z,3.58
2018-06-09T11:32:50.729Z,3.52
2018-06-09T11:35:20.230Z,4.00
2018-06-09T11:37:50.735Z,3.85
2018-06-09T11:40:20.105Z,3.17
2018-06-09T11:42:54.598Z,3.65
2018-06-09T11:45:32.593Z,3.75
2018-06-09T11:48:13.539Z,3.42
2018-06-09T11:50:43.194Z,3.22
2018-06-09T11:53:21.348Z,3.90
2018-06-09T11:55:56.981Z,3.52
2018-06-09T11:58:33.751Z,3.37
2018-06-09T12:01:10.333Z,3.90
2018-06-09T12:03:39.884Z,4.20
2018-06-09T12:06:09.314Z,4.37
2018-06-09T12:08:39.755Z,3.90
2018-06-09T12:11:09.153Z,3.00
2018-06-09T12:13:40.150Z,3.83
2018-06-09T12:16:09.507Z,3.98
2018-06-09T12:18:39.000Z,3.65
2018-06-09T12:21:08.562Z,3.27
2018-06-09T12:23:37.923Z,3.50
2018-06-09T12:26:07.067Z,3.85
2018-06-09T12:28:36.674Z,3.42
2018-06-09T12:31:06.401Z,3.90
2018-06-09T12:33:35.971Z,3.85
2018-06-09T12:36:05.387Z,4.60
2018-06-09T12:38:34.740Z,3.92
2018-06-09T12:41:04.038Z,3.75
2018-06-09T12:43:33.245Z,4.10
2018-06-09T12:46:03.137Z,4.22
2018-06-09T12:48:32.579Z,4.45
2018-06-09T12:51:01.940Z,3.90
2018-06-09T12:53:31.398Z,3.70
2018-06-09T12:56:00.778Z,3.83
2018-06-09T12:58:30.118Z,4.22
2018-06-09T13:00:59.710Z,4.30
2018-06-09T13:03:30.569Z,4.12
2018-06-09T13:06:00.926Z,4.50
2018-06-09T13:08:35.215Z,5.45
2018-06-09T13:11:05.075Z,7.50
2018-06-09T13:13:35.667Z,6.17
2018-06-09T13:16:05.416Z,6.35
2018-06-09T13:18:34.766Z,5.10
2018-06-09T13:21:04.074Z,6.00
2018-06-09T13:23:33.435Z,5.53
2018-06-09T13:26:02.839Z,4.80
2018-06-09T13:28:33.114Z,4.40
2018-06-09T13:31:02.689Z,4.87
2018-06-09T13:33:31.947Z,4.60
2018-06-09T13:36:01.282Z,4.33
2018-06-09T13:38:30.665Z,3.92
2018-06-09T13:41:00.039Z,3.55
2018-06-09T13:43:29.209Z,3.80
2018-06-09T13:45:58.507Z,3.83
2018-06-09T13:48:27.742Z,3.50
2018-06-09T13:50:58.683Z,4.15
2018-06-09T13:53:27.963Z,4.00
2018-06-09T13:55:57.205Z,3.45
2018-06-09T13:58:26.593Z,3.40
2018-06-09T14:00:55.966Z,3.17
2018-06-09T14:03:25.387Z,3.10
2018-06-09T14:05:54.867Z,3.40
2018-06-09T14:08:24.164Z,2.85
2018-06-09T14:10:53.667Z,3.37
2018-06-09T14:13:23.340Z,2.72
2018-06-09T14:15:52.855Z,3.20
2018-06-09T14:18:22.995Z,3.80
2018-06-09T14:20:52.574Z,3.08
2018-06-09T14:23:23.387Z,3.25
2018-06-09T14:25:52.874Z,4.55
2018-06-09T14:28:22.402Z,2.98
2018-06-09T14:30:51.977Z,2.83
2018-06-09T14:33:21.547Z,2.92
2018-06-09T14:35:52.321Z,3.17
2018-06-09T14:38:21.740Z,3.10
2018-06-09T14:40:51.001Z,3.25
2018-06-09T14:43:20.451Z,3.33
2018-06-09T14:45:49.722Z,3.25
2018-06-09T14:48:19.039Z,3.25
2018-06-09T14:50:48.323Z,3.20
2018-06-09T14:53:17.544Z,3.72
2018-06-09T14:55:46.120Z,3.33
2018-06-09T14:58:14.902Z,3.17
2018-06-09T15:00:43.611Z,2.98
2018-06-09T15:03:14.387Z,3.00
2018-06-09T15:05:43.715Z,3.50
2018-06-09T15:08:12.921Z,3.27
2018-06-09T15:10:43.640Z,3.22
2018-06-09T15:13:12.844Z,2.80
2018-06-09T15:15:41.995Z,2.77
2018-06-09T15:18:11.250Z,3.12
2018-06-09T15:20:40.478Z,3.58
2018-06-09T15:23:09.826Z,4.00
2018-06-09T15:25:39.288Z,3.47
2018-06-09T15:28:08.667Z,3.30
2018-06-09T15:30:38.745Z,3.22
2018-06-09T15:33:08.106Z,3.33
2018-06-09T15:35:37.460Z,3.52
2018-06-09T15:38:06.856Z,3.50
2018-06-09T15:40:36.214Z,4.28
2018-06-09T15:43:05.690Z,3.67
2018-06-09T15:45:35.076Z,3.40
2018-06-09T15:48:06.058Z,4.10
2018-06-09T15:50:35.439Z,3.35
2018-06-09T15:53:05.079Z,3.30
2018-06-09T15:55:34.604Z,2.98
2018-06-09T15:58:39.375Z,3.00
2018-06-09T16:01:40.582Z,2.80
2018-06-09T16:13:44.794Z,2.83
2018-06-09T16:22:35.015Z,4.30
2018-06-09T16:25:06.025Z,3.85
2018-06-09T16:27:35.779Z,4.22
2018-06-09T16:30:05.494Z,3.45
2018-06-09T16:32:34.943Z,3.47
2018-06-09T16:35:04.341Z,2.77
2018-06-09T16:37:33.582Z,3.00
2018-06-09T16:40:03.044Z,3.30
2018-06-09T16:42:32.298Z,4.15
2018-06-09T16:45:01.708Z,3.08
2018-06-09T16:47:31.129Z,3.00
2018-06-09T16:50:00.751Z,3.20
2018-06-09T16:52:30.109Z,2.85
2018-06-09T16:55:00.722Z,2.95
2018-06-09T16:57:30.395Z,4.58
2018-06-09T17:00:00.067Z,3.77
2018-06-09T17:02:29.366Z,4.58
2018-06-09T17:05:02.750Z,4.12
2018-06-09T17:07:32.760Z,5.20
2018-06-09T17:10:02.433Z,5.87
2018-06-09T17:12:31.882Z,5.15
2018-06-09T17:15:01.199Z,6.00
2018-06-09T17:17:31.557Z,5.80
2018-06-09T17:20:00.846Z,5.10
2018-06-09T17:22:30.223Z,10.50
2018-06-09T17:24:59.742Z,7.62
2018-06-09T17:27:29.018Z,6.47
2018-06-09T17:29:58.470Z,8.33
2018-06-09T17:32:27.867Z,57.83
2018-06-09T17:34:57.957Z,55.28
2018-06-09T17:37:30.501Z,24.90
2018-06-09T17:39:59.705Z,16.95
2018-06-09T17:42:29.047Z,16.27
2018-06-09T17:44:58.292Z,14.87
2018-06-09T17:47:27.638Z,14.63
2018-06-09T17:49:56.945Z,33.60
2018-06-09T17:52:26.269Z,10.40
2018-06-09T17:54:55.581Z,9.30
2018-06-09T17:57:24.867Z,13.65
2018-06-09T17:59:54.151Z,9.60
2018-06-09T18:02:23.431Z,8.10
2018-06-09T18:04:52.721Z,11.88
2018-06-09T18:07:21.915Z,7.20
2018-06-09T18:09:51.365Z,8.85
2018-06-09T18:12:20.629Z,6.05
2018-06-09T18:14:49.432Z,4.90
2018-06-09T18:17:18.682Z,5.12
2018-06-09T18:19:48.032Z,4.92
2018-06-09T18:22:17.331Z,4.58
2018-06-09T18:24:46.546Z,5.50
2018-06-09T18:27:15.807Z,5.33
2018-06-09T18:29:44.950Z,5.40
2018-06-09T18:32:14.236Z,4.92
2018-06-09T18:34:43.602Z,5.53
2018-06-09T18:37:12.941Z,5.47
2018-06-09T18:39:42.210Z,4.75
2018-06-09T18:42:12.455Z,4.85
2018-06-09T18:44:41.844Z,5.55
2018-06-09T18:47:16.164Z,4.95
2018-06-09T18:49:52.975Z,5.28
2018-06-09T18:52:29.709Z,5.72
2018-06-09T18:54:59.975Z,5.45
2018-06-09T18:57:31.142Z,5.10
2018-06-09T19:00:01.402Z,6.08
2018-06-09T19:02:33.570Z,5.62
2018-06-09T19:05:04.307Z,5.83
2018-06-09T19:07:38.478Z,5.97
2018-06-09T19:10:08.744Z,5.50
2018-06-09T19:12:38.888Z,5.28
2018-06-09T19:15:10.772Z,6.30
2018-06-09T19:17:41.530Z,6.67
2018-06-09T19:20:12.764Z,6.90
2018-06-09T19:22:45.271Z,6.22
2018-06-09T19:25:16.095Z,6.30
2018-06-09T19:27:45.471Z,6.25
2018-06-09T19:30:14.706Z,6.62
2018-06-09T19:32:43.632Z,7.45
2018-06-09T19:35:12.899Z,7.40
2018-06-09T19:37:42.107Z,7.00
2018-06-09T19:40:11.379Z,7.47
2018-06-09T19:42:40.567Z,7.15
2018-06-09T19:45:09.876Z,7.55
2018-06-09T19:47:39.105Z,7.30
2018-06-09T19:50:09.516Z,6.70
2018-06-09T19:52:39.340Z,8.05
2018-06-09T19:55:09.904Z,7.12
2018-06-09T19:57:40.279Z,9.08
2018-06-09T20:00:13.545Z,8.63
2018-06-09T20:02:43.663Z,6.87
2018-06-09T20:05:14.356Z,7.00
2018-06-09T20:07:45.513Z,7.90
2018-06-09T20:10:15.927Z,6.55
2018-06-09T20:12:48.142Z,6.35
2018-06-09T20:15:18.824Z,6.70
2018-06-09T20:17:50.284Z,6.47
2018-06-09T20:20:21.456Z,6.60
2018-06-09T20:22:52.547Z,6.75
2018-06-09T20:25:23.569Z,6.28
2018-06-09T20:27:53.913Z,6.80
2018-06-09T20:30:27.664Z,6.22
2018-06-09T20:33:01.145Z,6.25
2018-06-09T20:35:31.483Z,5.75
2018-06-09T20:38:01.554Z,7.08
2018-06-09T20:40:31.311Z,6.87
2018-06-09T20:43:01.948Z,6.12
2018-06-09T20:45:32.010Z,5.90
2018-06-09T20:48:02.551Z,6.17
2018-06-09T20:50:31.526Z,6.55
2018-06-09T20:53:01.978Z,6.33
2018-06-09T20:55:31.815Z,6.20
2018-06-09T20:58:01.770Z,6.80
2018-06-09T21:00:31.912Z,6.55
2018-06-09T21:03:01.641Z,5.72
2018-06-09T21:05:31.717Z,6.00
2018-06-09T21:08:03.115Z,7.22
2018-06-09T21:10:32.679Z,6.90
2018-06-09T21:13:02.905Z,6.92
2018-06-09T21:15:32.609Z,7.62
2018-06-09T21:18:02.460Z,5.90
2018-06-09T21:20:31.958Z,6.17
2018-06-09T21:23:01.529Z,7.78
2018-06-09T21:25:31.271Z,7.50
2018-06-09T21:28:06.292Z,8.13
2018-06-09T21:30:42.139Z,7.58
2018-06-09T21:35:33.609Z,6.92
2018-06-09T21:38:08.295Z,7.20
2018-06-09T21:40:42.650Z,8.58
2018-06-09T21:43:17.560Z,7.05
2018-06-09T21:45:49.309Z,8.08
2018-06-09T21:48:20.523Z,6.90
2018-06-09T21:50:50.878Z,7.55
2018-06-09T21:53:20.967Z,8.18
2018-06-09T21:55:51.009Z,10.08
2018-06-09T21:58:21.390Z,8.85
2018-06-09T22:00:52.355Z,8.73
2018-06-09T22:03:22.140Z,8.25
2018-06-09T22:05:52.127Z,8.83
2018-06-09T22:08:21.963Z,8.50
2018-06-09T22:10:51.866Z,8.33
2018-06-09T22:13:22.887Z,7.45
2018-06-09T22:15:52.444Z,8.78
2018-06-09T22:18:23.456Z,7.67
2018-06-09T22:20:53.563Z,7.72
2018-06-09T22:23:24.005Z,6.37
2018-06-09T22:26:00.984Z,7.83
2018-06-09T22:28:31.142Z,7.42
2018-06-09T22:31:01.065Z,8.48
2018-06-09T22:33:30.863Z,8.18
2018-06-09T22:36:01.809Z,8.30
2018-06-09T22:38:31.499Z,9.40
2018-06-09T22:41:01.949Z,8.78
2018-06-09T22:43:31.546Z,9.03
2018-06-09T22:46:01.384Z,9.70
2018-06-09T22:48:31.539Z,8.63
2018-06-09T22:51:03.223Z,10.23
2018-06-09T22:53:33.598Z,9.35
2018-06-09T22:56:03.371Z,8.85
2018-06-09T22:58:33.631Z,8.70
2018-06-09T23:01:03.995Z,9.70
2018-06-09T23:03:34.144Z,9.03
2018-06-09T23:06:04.320Z,8.73
2018-06-09T23:08:34.484Z,9.18
2018-06-09T23:11:04.539Z,9.55
2018-06-09T23:13:34.752Z,9.75
2018-06-09T23:16:04.588Z,9.18
2018-06-09T23:18:34.499Z,8.55
2018-06-09T23:21:04.772Z,9.10
2018-06-09T23:23:35.135Z,8.50
2018-06-09T23:26:04.938Z,9.88
2018-06-09T23:28:35.250Z,9.50
2018-06-09T23:31:05.214Z,10.45
2018-06-09T23:33:35.021Z,10.30
2018-06-09T23:36:05.542Z,10.70
2018-06-09T23:38:35.058Z,9.53
2018-06-09T23:41:05.228Z,8.98
2018-06-09T23:43:35.283Z,9.75
2018-06-09T23:46:05.147Z,8.63
2018-06-09T23:48:34.652Z,8.78
2018-06-09T23:51:05.335Z,9.25
2018-06-09T23:53:35.758Z,8.40
2018-06-09T23:56:05.622Z,10.05
2018-06-09T23:58:35.580Z,9.78
